Time;durP1;ratioP1;P1;durP2;ratioP2;P2;SDS_P1;SDS_P2;PMS_P1;PMS_P2;Temp;Humidity;BMP_temperature;BMP_pressure;BME280_temperature;BME280_humidity;BME280_pressure;Samples;Min_cycle;Max_cycle;Signal;HPM_P1;HPM_P2
2024/04/11 00:00:47;;;;;;;18.27;5.90;;;;;;;14.37;82.96;101685.81;5383405;26;20000;-73
2024/04/11 00:03:16;;;;;;;14.40;5.80;;;;;;;14.40;82.90;101687.94;5383813;26;20025;-74
2024/04/11 00:05:45;;;;;;;12.70;6.07;;;;;;;14.46;82.71;101676.63;5383800;26;20446;-73
2024/04/11 00:08:12;;;;;;;13.38;5.22;;;;;;;14.48;82.81;101685.38;5356537;21;20037;-74
2024/04/11 00:10:40;;;;;;;22.17;6.88;;;;;;;14.48;83.46;101682.63;5317016;26;20016;-75
2024/04/11 00:17:14;;;;;;;18.60;7.95;;;;;;;14.31;87.61;101683.16;5290402;27;20007;-74
2024/04/11 00:19:42;;;;;;;19.75;7.28;;;;;;;14.25;88.59;101684.34;5285405;27;20064;-72
2024/04/11 00:22:09;;;;;;;18.90;6.75;;;;;;;14.16;89.83;101679.84;5279757;27;20010;-69
2024/04/11 00:24:37;;;;;;;14.63;6.10;;;;;;;14.02;91.65;101685.25;5279520;27;20006;-75
2024/04/11 00:27:05;;;;;;;15.35;5.65;;;;;;;14.05;93.06;101676.47;5276925;27;20014;-75
2024/04/11 00:29:33;;;;;;;19.73;6.60;;;;;;;13.99;93.75;101674.91;5278993;27;20017;-72
2024/04/11 00:32:02;;;;;;;17.45;6.80;;;;;;;13.94;94.42;101680.44;5279234;27;20004;-69
2024/04/11 00:34:32;;;;;;;20.55;6.15;;;;;;;13.87;94.91;101680.78;5279466;27;20006;-75
2024/04/11 00:37:00;;;;;;;12.70;5.68;;;;;;;13.81;96.45;101682.75;5279398;27;20348;-71
2024/04/11 00:39:28;;;;;;;17.88;5.47;;;;;;;13.77;97.08;101686.38;5279224;27;20014;-69
2024/04/11 00:41:56;;;;;;;21.27;6.38;;;;;;;13.55;98.01;101679.53;5279510;27;20002;-71
2024/04/11 00:44:29;;;;;;;14.02;5.32;;;;;;;13.57;98.46;101673.81;5279526;27;20002;-69
2024/04/11 00:46:57;;;;;;;17.80;5.68;;;;;;;13.54;98.96;101691.59;5277494;27;20449;-69
2024/04/11 00:49:26;;;;;;;15.98;5.82;;;;;;;13.57;99.45;101684.72;5279212;27;20109;-72
2024/04/11 00:51:53;;;;;;;19.45;6.13;;;;;;;13.54;99.65;101690.78;5279122;27;20018;-71
2024/04/11 00:54:22;;;;;;;17.27;6.50;;;;;;;13.58;100.00;101686.34;5279453;27;20003;-67
2024/04/11 00:56:50;;;;;;;17.27;6.30;;;;;;;13.67;99.28;101681.88;5281745;27;20002;-71
2024/04/11 00:59:18;;;;;;;19.10;6.35;;;;;;;13.67;99.50;101687.34;5281644;27;20017;-67
2024/04/11 01:01:45;;;;;;;17.33;6.38;;;;;;;13.63;99.70;101680.03;5282108;27;20431;-69
2024/04/11 01:04:13;;;;;;;15.90;6.03;;;;;;;13.57;100.00;101682.00;5279569;27;20013;-71
2024/04/11 01:09:45;;;;;;;22.20;7.07;;;;;;;13.45;100.00;101681.59;5278586;27;20034;-70
2024/04/11 01:12:16;;;;;;;15.85;6.30;;;;;;;13.41;100.00;101686.81;5279083;27;20018;-70
2024/04/11 01:14:51;;;;;;;18.97;7.30;;;;;;;13.35;100.00;101687.97;5278587;27;20002;-72
2024/04/11 01:17:21;;;;;;;17.80;6.77;;;;;;;13.41;100.00;101688.75;5278681;27;20233;-69
2024/04/11 01:19:49;;;;;;;19.63;6.65;;;;;;;13.43;100.00;101689.28;5278894;27;20266;-70
2024/04/11 01:22:18;;;;;;;18.05;6.78;;;;;;;13.49;100.00;101690.81;5278895;27;20004;-72
2024/04/11 01:24:47;;;;;;;15.13;6.65;;;;;;;13.44;100.00;101685.44;5278687;27;20007;-75
2024/04/11 01:27:15;;;;;;;17.05;6.72;;;;;;;13.46;100.00;101683.22;5278885;27;20081;-78
2024/04/11 01:29:43;;;;;;;20.00;6.32;;;;;;;13.47;100.00;101687.59;5278570;27;20002;-69
2024/04/11 01:32:11;;;;;;;17.25;6.97;;;;;;;13.49;100.00;101691.66;5278835;27;20002;-74
2024/04/11 01:34:39;;;;;;;17.35;6.72;;;;;;;13.49;100.00;101683.47;5278541;27;20010;-75
2024/04/11 01:37:07;;;;;;;17.27;6.88;;;;;;;13.55;100.00;101686.94;5277976;27;20018;-69
2024/04/11 01:39:37;;;;;;;18.45;6.00;;;;;;;13.57;100.00;101682.81;5276521;27;20042;-75
2024/04/11 01:42:05;;;;;;;15.02;6.10;;;;;;;13.57;100.00;101684.72;5278362;27;20014;-69
2024/04/11 01:44:32;;;;;;;19.13;7.15;;;;;;;13.53;100.00;101683.69;5304632;27;20002;-68
2024/04/11 01:47:00;;;;;;;17.30;7.45;;;;;;;13.49;100.00;101682.63;5278326;27;20134;-72
2024/04/11 01:49:31;;;;;;;16.20;7.40;;;;;;;13.46;100.00;101684.03;5278481;27;20002;-67
2024/04/11 01:51:59;;;;;;;16.75;7.57;;;;;;;13.37;100.00;101677.59;5278328;27;20088;-68
2024/04/11 01:54:27;;;;;;;17.30;7.47;;;;;;;13.31;100.00;101681.47;5278223;27;20014;-69
2024/04/11 01:56:54;;;;;;;18.95;7.38;;;;;;;13.23;100.00;101680.19;5278382;27;20038;-68
2024/04/11 01:59:22;;;;;;;20.67;7.72;;;;;;;13.27;100.00;101686.72;5276549;27;20010;-69
2024/04/11 02:01:50;;;;;;;18.75;7.93;;;;;;;13.30;100.00;101679.88;5276645;27;20081;-70
2024/04/11 02:04:18;;;;;;;21.05;7.72;;;;;;;13.22;100.00;101681.25;5276459;27;20002;-70
2024/04/11 02:06:45;;;;;;;22.23;7.47;;;;;;;13.21;100.00;101685.09;5277997;27;20038;-75
2024/04/11 02:09:16;;;;;;;20.58;7.68;;;;;;;13.24;100.00;101684.56;5278072;27;20038;-69
2024/04/11 02:11:46;;;;;;;17.60;7.63;;;;;;;13.31;100.00;101686.94;5278240;27;20034;-74
2024/04/11 02:14:14;;;;;;;22.45;7.47;;;;;;;13.32;100.00;101699.47;5278098;27;20043;-68
2024/04/11 02:16:42;;;;;;;22.85;8.35;;;;;;;13.32;100.00;101696.75;5277875;27;20002;-69
2024/04/11 02:19:12;;;;;;;20.27;7.55;;;;;;;13.30;100.00;101696.25;5276168;27;20017;-69
2024/04/11 02:21:43;;;;;;;21.20;7.97;;;;;;;13.27;100.00;101694.09;5278019;27;20453;-72
2024/04/11 02:24:19;;;;;;;27.15;7.95;;;;;;;13.25;100.00;101694.38;5278196;27;20472;-68
2024/04/11 02:26:48;;;;;;;24.92;8.15;;;;;;;13.21;100.00;101695.22;5277416;27;20013;-69
2024/04/11 02:29:17;;;;;;;17.85;7.32;;;;;;;13.24;100.00;101698.22;5277852;27;20074;-71
2024/04/11 02:31:46;;;;;;;21.25;7.70;;;;;;;13.23;100.00;101684.84;5277699;27;20017;-68
2024/04/11 02:34:14;;;;;;;12.88;6.22;;;;;;;13.29;100.00;101698.16;5278119;27;20076;-69
2024/04/11 02:36:41;;;;;;;19.23;7.45;;;;;;;13.33;100.00;101696.47;5277540;27;20391;-69
2024/04/11 02:39:12;;;;;;;14.88;5.75;;;;;;;13.33;100.00;101699.22;5277844;27;20014;-69
2024/04/11 02:41:41;;;;;;;20.35;5.57;;;;;;;13.30;100.00;101699.78;5277495;27;20002;-69
2024/04/11 02:44:09;;;;;;;14.05;4.63;;;;;;;13.34;100.00;101703.56;5277442;27;20017;-69
2024/04/11 02:46:39;;;;;;;12.45;4.80;;;;;;;13.37;100.00;101702.97;5277445;27;20366;-70
2024/04/11 02:49:07;;;;;;;15.80;5.10;;;;;;;13.38;100.00;101701.06;5277049;27;20017;-68
2024/04/11 02:51:35;;;;;;;13.63;4.28;;;;;;;13.42;100.00;101690.38;5277528;27;20017;-67
2024/04/11 02:54:07;;;;;;;13.15;4.25;;;;;;;13.44;100.00;101683.50;5277420;27;20014;-69
2024/04/11 02:56:36;;;;;;;14.60;4.22;;;;;;;13.48;100.00;101691.94;5275366;27;20010;-72
2024/04/11 02:59:04;;;;;;;12.27;4.03;;;;;;;13.49;100.00;101685.34;5277692;27;20045;-69
2024/04/11 03:01:32;;;;;;;10.82;4.13;;;;;;;13.44;100.00;101690.91;5277302;27;20340;-70
2024/04/11 03:04:01;;;;;;;16.27;4.40;;;;;;;13.35;100.00;101683.34;5277228;27;20084;-68
2024/04/11 03:06:31;;;;;;;11.60;3.92;;;;;;;13.35;100.00;101699.72;5277056;27;20376;-69
2024/04/11 03:09:00;;;;;;;12.18;5.03;;;;;;;13.36;100.00;101690.44;5275969;27;20021;-72
2024/04/11 03:11:29;;;;;;;13.27;4.35;;;;;;;13.40;100.00;101692.59;5277067;27;20017;-70
2024/04/11 03:13:57;;;;;;;12.05;4.28;;;;;;;13.43;100.00;101697.47;5277304;27;20458;-76
2024/04/11 03:16:27;;;;;;;15.05;4.60;;;;;;;13.47;100.00;101703.97;5277648;27;20114;-70
2024/04/11 03:18:56;;;;;;;12.70;4.45;;;;;;;13.49;100.00;101704.47;5276311;27;20002;-72
2024/04/11 03:21:24;;;;;;;14.15;4.10;;;;;;;13.52;100.00;101701.16;5277036;27;20085;-67
2024/04/11 03:23:53;;;;;;;16.45;4.93;;;;;;;13.55;100.00;101701.41;5277399;27;20018;-68
2024/04/11 03:26:20;;;;;;;12.65;3.80;;;;;;;13.59;100.00;101696.19;5276943;27;20010;-68
2024/04/11 03:28:47;;;;;;;13.20;3.80;;;;;;;13.55;100.00;101703.31;5275115;27;20010;-68
2024/04/11 03:31:18;;;;;;;14.60;4.28;;;;;;;13.53;100.00;101705.53;5274745;27;20006;-67
2024/04/11 03:33:46;;;;;;;14.15;3.60;;;;;;;13.53;100.00;101711.81;5276532;27;20471;-68
2024/04/11 03:36:14;;;;;;;10.43;3.58;;;;;;;13.57;100.00;101712.03;5276609;27;20081;-68
2024/04/11 03:38:42;;;;;;;11.57;3.80;;;;;;;13.60;100.00;101700.53;5276613;27;20006;-72
2024/04/11 03:41:11;;;;;;;13.90;3.33;;;;;;;13.59;100.00;101693.47;5277153;27;20002;-75
2024/04/11 03:43:41;;;;;;;13.43;4.18;;;;;;;13.63;100.00;101693.69;5275927;27;20002;-71
2024/04/11 03:46:24;;;;;;;12.13;3.92;;;;;;;13.56;100.00;101694.03;5276109;27;20376;-69
2024/04/11 03:48:57;;;;;;;13.65;4.13;;;;;;;13.51;100.00;101692.16;5276397;27;20073;-69
2024/04/11 03:51:29;;;;;;;17.52;4.18;;;;;;;13.47;100.00;101698.50;5276246;27;20076;-70
2024/04/11 03:53:58;;;;;;;14.77;4.25;;;;;;;13.44;100.00;101690.91;5276263;27;20017;-74
2024/04/11 03:56:27;;;;;;;12.23;3.97;;;;;;;13.48;100.00;101691.94;5275992;27;20006;-78
2024/04/11 03:58:56;;;;;;;9.73;3.70;;;;;;;13.50;100.00;101695.19;5276947;27;20007;-75
2024/04/11 04:01:30;;;;;;;14.55;4.40;;;;;;;13.54;100.00;101693.50;5278343;27;20003;-72
2024/04/11 04:04:03;;;;;;;13.13;4.03;;;;;;;13.52;100.00;101692.97;5281757;27;20457;-75
2024/04/11 04:06:34;;;;;;;13.23;3.92;;;;;;;13.52;100.00;101704.75;5279685;27;20006;-76
2024/04/11 04:09:10;;;;;;;13.02;3.97;;;;;;;13.55;100.00;101706.84;5280888;27;20030;-70
2024/04/11 04:11:38;;;;;;;16.10;4.43;;;;;;;13.56;100.00;101704.97;5280284;27;20046;-69
2024/04/11 04:14:09;;;;;;;13.13;4.50;;;;;;;13.55;100.00;101714.25;5279962;27;20013;-70
2024/04/11 04:16:41;;;;;;;12.23;4.35;;;;;;;13.55;100.00;101722.44;5279165;27;20011;-71
2024/04/11 04:19:10;;;;;;;21.77;5.53;;;;;;;13.46;100.00;101714.09;5279559;27;20014;-68
2024/04/11 04:21:41;;;;;;;27.17;7.57;;;;;;;13.45;100.00;101725.28;5277896;27;20002;-69
2024/04/11 04:24:09;;;;;;;25.85;8.00;;;;;;;13.42;100.00;101725.88;5279999;27;20003;-70
2024/04/11 04:26:38;;;;;;;28.98;7.88;;;;;;;13.37;100.00;101737.66;5277784;27;20436;-69
2024/04/11 04:29:05;;;;;;;20.88;8.07;;;;;;;13.32;100.00;101729.50;5279690;27;20048;-68
2024/04/11 04:31:33;;;;;;;26.10;10.45;;;;;;;13.32;100.00;101737.69;5277423;27;20072;-68
2024/04/11 04:34:03;;;;;;;34.55;18.55;;;;;;;13.36;100.00;101739.59;5279445;27;20003;-68
2024/04/11 04:36:39;;;;;;;59.47;43.63;;;;;;;13.40;100.00;101730.81;5278965;27;20006;-68
2024/04/11 04:39:30;;;;;;;47.50;36.25;;;;;;;13.41;100.00;101724.25;5377907;26;20450;-73
2024/04/11 04:41:58;;;;;;;38.85;26.08;;;;;;;13.47;100.00;101723.09;5383110;26;20000;-73
2024/04/11 04:44:28;;;;;;;47.22;25.85;;;;;;;13.48;100.00;101713.78;5383121;26;20000;-74
2024/04/11 04:46:56;;;;;;;31.80;19.73;;;;;;;13.47;100.00;101712.16;5348145;26;19997;-74
2024/04/11 04:49:23;;;;;;;25.05;15.43;;;;;;;13.54;100.00;101707.16;5348341;26;20001;-74
2024/04/11 04:51:51;;;;;;;25.60;14.10;;;;;;;13.59;100.00;101697.00;5355714;26;20001;-71
2024/04/11 04:54:19;;;;;;;23.33;13.20;;;;;;;13.71;100.00;101702.03;5366405;26;20086;-71
2024/04/11 04:56:47;;;;;;;14.85;6.82;;;;;;;13.83;100.00;101698.88;5365841;26;19996;-70
2024/04/11 04:59:14;;;;;;;22.50;7.30;;;;;;;13.89;100.00;101699.63;5361031;26;20466;-74
2024/04/11 05:01:42;;;;;;;15.02;6.45;;;;;;;13.96;100.00;101697.34;5353227;26;20001;-73
2024/04/11 05:04:13;;;;;;;13.02;6.25;;;;;;;14.05;100.00;101696.41;5339228;26;20018;-74
2024/04/11 05:06:44;;;;;;;18.35;5.45;;;;;;;14.23;100.00;101702.97;5312911;26;20383;-73
2024/04/11 05:09:12;;;;;;;15.43;5.10;;;;;;;14.32;100.00;101701.19;5343132;26;20024;-74
2024/04/11 05:11:40;;;;;;;15.60;5.15;;;;;;;14.40;100.00;101702.44;5347631;26;20342;-73
2024/04/11 05:14:08;;;;;;;12.40;4.45;;;;;;;14.56;99.53;101704.97;5348489;26;20001;-72
2024/04/11 05:16:37;;;;;;;13.43;4.30;;;;;;;14.85;95.52;101705.56;5347652;26;20000;-72
2024/04/11 05:19:07;;;;;;;13.95;4.28;;;;;;;15.21;93.64;101700.25;5347812;26;20001;-73
2024/04/11 05:21:39;;;;;;;14.05;4.20;;;;;;;15.55;90.23;101701.78;5347593;26;20038;-73
2024/04/11 05:24:10;;;;;;;12.93;4.20;;;;;;;15.96;88.31;101711.94;5348059;26;20332;-76
2024/04/11 05:26:38;;;;;;;12.38;4.35;;;;;;;16.36;89.27;101704.72;5347240;26;19997;-70
2024/04/11 05:29:07;;;;;;;13.88;4.75;;;;;;;16.56;85.32;101699.88;5347816;26;20007;-71
2024/04/11 05:31:37;;;;;;;12.35;4.43;;;;;;;16.76;85.36;101706.81;5347624;26;20083;-72
2024/04/11 05:34:13;;;;;;;15.77;4.75;;;;;;;16.64;85.53;101707.34;5347228;26;20011;-72
2024/04/11 05:36:41;;;;;;;18.02;5.13;;;;;;;16.69;84.17;101714.66;5347367;26;20009;-73
2024/04/11 05:39:09;;;;;;;17.60;6.00;;;;;;;16.56;85.78;101717.13;5347825;26;20025;-74
2024/04/11 05:41:37;;;;;;;20.55;5.85;;;;;;;16.47;85.63;101723.69;5347289;26;20052;-71
2024/04/11 05:44:06;;;;;;;15.93;4.68;;;;;;;16.49;84.85;101722.25;5347550;26;20104;-71
2024/04/11 05:46:35;;;;;;;19.73;6.32;;;;;;;16.50;85.28;101718.38;5347024;26;20364;-74
2024/04/11 05:49:06;;;;;;;17.05;6.65;;;;;;;16.46;85.95;101719.31;5347722;26;19997;-73
2024/04/11 05:51:37;;;;;;;20.98;6.68;;;;;;;16.31;86.59;101721.28;5347500;26;19997;-71
2024/04/11 05:54:05;;;;;;;20.15;6.28;;;;;;;16.22;86.38;101714.09;5347447;26;19997;-72
2024/04/11 05:56:34;;;;;;;12.50;4.85;;;;;;;16.34;86.50;101708.88;5347194;26;20016;-73
2024/04/11 05:59:03;;;;;;;15.73;4.90;;;;;;;16.24;85.40;101698.16;5347392;26;19997;-71
2024/04/11 06:01:34;;;;;;;19.15;5.43;;;;;;;16.23;87.62;101707.50;5346933;26;20004;-70
2024/04/11 06:04:05;;;;;;;13.63;5.35;;;;;;;16.73;87.02;101697.22;5345403;26;20090;-70
2024/04/11 06:06:33;;;;;;;14.18;4.90;;;;;;;17.46;85.88;101705.22;5345012;26;19996;-70
2024/04/11 06:09:01;;;;;;;17.17;4.13;;;;;;;17.94;80.04;101699.72;5396065;21;20036;-71
2024/04/11 06:11:29;;;;;;;13.02;4.28;;;;;;;18.53;78.25;101707.50;5383338;26;20050;-70
2024/04/11 06:13:57;;;;;;;14.80;4.00;;;;;;;18.98;73.82;101707.91;5409162;26;20027;-72
2024/04/11 06:16:24;;;;;;;12.68;3.60;;;;;;;19.27;72.96;101702.81;5418813;26;19999;-72
2024/04/11 06:18:54;;;;;;;13.82;4.97;;;;;;;19.02;70.22;101699.81;5356382;26;20406;-70
2024/04/11 06:21:32;;;;;;;19.33;5.40;;;;;;;19.05;72.73;101704.66;5400617;26;20438;-69
2024/04/11 06:24:01;;;;;;;16.60;6.30;;;;;;;18.61;74.57;101703.09;5415963;26;20011;-70
2024/04/11 06:26:35;;;;;;;23.45;6.85;;;;;;;18.45;76.35;101703.59;5358238;26;19995;-70
2024/04/11 06:29:07;;;;;;;18.30;5.88;;;;;;;18.25;75.15;101716.06;5417305;26;19999;-69
2024/04/11 06:31:38;;;;;;;16.58;6.03;;;;;;;18.03;74.33;101719.78;5388047;26;20334;-69
2024/04/11 06:34:08;;;;;;;27.13;7.47;;;;;;;18.00;75.70;101725.94;5351336;26;20011;-69
2024/04/11 06:36:38;;;;;;;22.50;7.70;;;;;;;17.95;74.95;101728.81;5381949;26;20004;-73
2024/04/11 06:39:10;;;;;;;18.70;7.32;;;;;;;18.34;74.03;101729.84;5351517;26;20070;-68
2024/04/11 06:41:37;;;;;;;21.98;7.65;;;;;;;18.79;71.65;101734.19;5381699;26;20007;-68
2024/04/11 06:44:05;;;;;;;16.83;7.85;;;;;;;18.97;70.33;101733.84;5381746;26;20450;-69
2024/04/11 06:46:34;;;;;;;32.08;12.63;;;;;;;19.01;65.97;101734.00;5381284;26;20011;-69
2024/04/11 06:49:02;;;;;;;29.83;11.32;;;;;;;19.42;65.31;101733.38;5381757;26;19997;-69
2024/04/11 06:51:31;;;;;;;27.42;12.68;;;;;;;19.82;63.93;101748.78;5350226;26;20000;-67
2024/04/11 06:54:03;;;;;;;43.10;20.20;;;;;;;20.32;61.64;101754.28;5381517;26;20036;-71
2024/04/11 06:56:31;;;;;;;128.10;63.35;;;;;;;20.78;59.55;101757.97;5381097;26;20011;-68
2024/04/11 06:59:01;;;;;;;205.95;103.20;;;;;;;21.24;57.71;101750.50;5381084;26;20000;-67
2024/04/11 07:01:28;;;;;;;117.60;60.17;;;;;;;21.57;55.00;101755.19;5381107;26;20004;-67
2024/04/11 07:03:59;;;;;;;95.00;46.42;;;;;;;21.69;55.05;101754.41;5380871;26;20000;-68
2024/04/11 07:06:29;;;;;;;58.85;28.27;;;;;;;21.83;52.79;101751.28;5380797;26;20000;-68
2024/04/11 07:08:58;;;;;;;40.83;18.98;;;;;;;22.33;52.55;101761.13;5344479;26;20007;-71
2024/04/11 07:11:32;;;;;;;42.15;17.90;;;;;;;22.69;51.11;101747.13;5346209;26;20001;-70
2024/04/11 07:14:08;;;;;;;20.63;8.20;;;;;;;23.22;48.38;101751.75;5345655;26;20354;-71
2024/04/11 07:16:40;;;;;;;18.13;7.20;;;;;;;23.15;48.95;101755.94;5344874;26;20001;-72
2024/04/11 07:19:09;;;;;;;17.70;5.85;;;;;;;22.40;49.76;101755.78;5345114;26;20051;-69
2024/04/11 07:21:38;;;;;;;17.83;5.28;;;;;;;22.88;49.40;101757.56;5346165;26;20055;-72
2024/04/11 07:24:06;;;;;;;12.38;5.93;;;;;;;23.28;48.18;101759.44;5344576;26;19997;-76
2024/04/11 07:26:38;;;;;;;18.95;5.18;;;;;;;23.42;48.35;101764.53;5346124;26;20074;-78
2024/04/11 07:29:08;;;;;;;11.82;4.88;;;;;;;23.40;47.07;101764.91;5347041;26;20007;-77
2024/04/11 07:31:39;;;;;;;12.80;4.50;;;;;;;22.76;47.79;101768.69;5348574;26;20033;-78
2024/04/11 07:34:08;;;;;;;12.98;4.55;;;;;;;22.27;49.35;101779.13;5348881;26;20004;-69
2024/04/11 07:36:39;;;;;;;18.33;4.82;;;;;;;21.81;50.76;101778.47;5354809;26;20012;-70
2024/04/11 07:39:13;;;;;;;9.75;4.03;;;;;;;22.08;51.09;101790.78;5354021;26;20008;-77
2024/04/11 07:41:44;;;;;;;9.80;3.80;;;;;;;22.18;50.73;101793.13;5351815;26;19997;-70
2024/04/11 07:44:17;;;;;;;13.30;5.23;;;;;;;22.13;51.18;101796.91;5352518;26;20465;-69
2024/04/11 07:46:46;;;;;;;15.93;6.03;;;;;;;22.32;50.95;101795.53;5349374;26;20352;-68
2024/04/11 07:49:35;;;;;;;17.42;7.50;;;;;;;22.20;50.94;101799.91;5340075;26;20458;-80
2024/04/11 07:52:04;;;;;;;14.48;6.80;;;;;;;22.04;50.39;101796.22;5336849;26;20000;-79
2024/04/11 07:54:33;;;;;;;14.95;5.53;;;;;;;21.48;52.05;101805.06;5334390;26;20016;-70
2024/04/11 07:57:12;;;;;;;13.00;4.78;;;;;;;21.40;52.71;101813.47;5347944;26;20007;-70
2024/04/11 07:59:41;;;;;;;13.65;5.18;;;;;;;21.93;52.26;101808.91;5348553;26;20011;-66
2024/04/11 08:02:10;;;;;;;13.15;6.03;;;;;;;22.24;51.11;101806.38;5339518;26;20008;-70
2024/04/11 08:04:39;;;;;;;16.17;6.97;;;;;;;22.03;50.71;101813.97;5349052;26;19997;-70
2024/04/11 08:07:06;;;;;;;17.15;7.40;;;;;;;21.83;51.58;101814.91;5350488;26;20029;-68
2024/04/11 08:09:44;;;;;;;19.02;6.93;;;;;;;21.72;52.58;101822.88;5383920;26;19997;-66
2024/04/11 08:12:17;;;;;;;19.00;6.53;;;;;;;21.02;53.81;101831.06;5357998;26;20442;-70
2024/04/11 08:14:45;;;;;;;15.10;6.15;;;;;;;20.83;55.54;101832.38;5348671;26;20405;-71
2024/04/11 08:17:13;;;;;;;15.73;5.75;;;;;;;20.35;56.71;101830.13;5329980;26;20018;-67
2024/04/11 08:19:44;;;;;;;16.63;5.63;;;;;;;19.79;58.47;101832.19;5322668;26;20011;-66
2024/04/11 08:22:28;;;;;;;13.52;5.18;;;;;;;19.37;61.05;101841.06;5355583;26;20012;-67
2024/04/11 08:24:56;;;;;;;13.77;5.00;;;;;;;19.08;61.93;101846.44;5383204;26;19996;-73
2024/04/11 08:27:24;;;;;;;13.23;5.20;;;;;;;18.65;62.85;101852.75;5382951;26;20007;-67
2024/04/11 08:29:51;;;;;;;14.50;4.60;;;;;;;18.23;65.93;101849.63;5383272;26;19996;-67
2024/04/11 08:32:21;;;;;;;13.73;4.45;;;;;;;18.15;67.33;101859.44;5383265;26;20081;-65
2024/04/11 08:34:51;;;;;;;10.80;4.63;;;;;;;18.17;68.41;101861.91;5383518;26;20024;-67
2024/04/11 08:37:20;;;;;;;12.48;4.75;;;;;;;18.17;68.08;101861.91;5382404;26;20043;-70
2024/04/11 08:39:48;;;;;;;14.73;4.53;;;;;;;18.09;68.94;101868.97;5370405;26;20004;-71
2024/04/11 08:42:18;;;;;;;12.85;4.68;;;;;;;18.37;68.50;101863.25;5317996;26;20024;-70
2024/04/11 08:44:57;;;;;;;14.35;5.22;;;;;;;18.26;69.36;101865.47;5348044;26;20005;-67
2024/04/11 08:47:25;;;;;;;16.02;5.10;;;;;;;18.63;68.69;101868.78;5347623;26;20008;-67
2024/04/11 08:49:53;;;;;;;12.90;4.70;;;;;;;18.88;67.86;101876.28;5348138;26;19997;-67
2024/04/11 08:52:24;;;;;;;13.30;4.57;;;;;;;19.04;68.29;101884.06;5348247;26;20004;-68
2024/04/11 08:54:52;;;;;;;14.82;4.95;;;;;;;19.45;66.89;101895.38;5317812;26;20349;-67
2024/04/11 08:57:20;;;;;;;10.05;4.90;;;;;;;19.84;66.42;101881.66;5349375;26;20074;-68
2024/04/11 08:59:48;;;;;;;18.85;5.13;;;;;;;19.96;66.59;101883.72;5349767;26;20001;-68
2024/04/11 09:02:16;;;;;;;15.27;4.93;;;;;;;20.13;65.54;101881.69;5350290;26;20001;-68
2024/04/11 09:04:43;;;;;;;11.05;4.00;;;;;;;20.06;65.78;101880.59;5319660;26;20007;-68
2024/04/11 09:07:22;;;;;;;13.82;4.85;;;;;;;19.75;66.20;101878.13;5349142;26;20418;-67
2024/04/11 09:09:51;;;;;;;17.85;4.93;;;;;;;19.70;67.34;101883.81;5348063;26;20447;-69
2024/04/11 09:12:22;;;;;;;15.95;4.85;;;;;;;19.60;67.19;101879.44;5348024;26;20001;-67
2024/04/11 09:14:50;;;;;;;14.43;4.82;;;;;;;19.46;69.28;101879.63;5347781;26;20001;-67
2024/04/11 09:17:17;;;;;;;12.23;5.13;;;;;;;19.47;69.16;101883.19;5347900;26;19993;-67
2024/04/11 09:19:49;;;;;;;15.65;4.65;;;;;;;19.32;69.50;101881.78;5347696;26;20451;-67
2024/04/11 09:22:21;;;;;;;13.70;4.20;;;;;;;19.42;70.18;101885.00;5350644;26;20085;-67
2024/04/11 09:24:50;;;;;;;15.80;4.37;;;;;;;19.50;71.00;101882.53;5381995;26;20004;-66
2024/04/11 09:27:20;;;;;;;13.52;4.65;;;;;;;19.43;70.62;101875.59;5381463;26;20242;-67
2024/04/11 09:29:48;;;;;;;14.02;4.72;;;;;;;19.36;75.24;101875.28;5382337;26;20518;-66
2024/04/11 09:32:21;;;;;;;20.73;4.85;;;;;;;19.14;76.53;101876.28;5383121;26;20033;-77
2024/04/11 09:34:55;;;;;;;20.50;4.43;;;;;;;19.29;78.26;101865.91;5384273;26;20001;-66
2024/04/11 09:37:32;;;;;;;19.42;4.82;;;;;;;19.38;78.99;101872.19;5381953;26;20015;-66
2024/04/11 09:40:11;;;;;;;16.52;4.75;;;;;;;19.40;79.95;101864.41;5351591;26;20004;-66
2024/04/11 09:42:40;;;;;;;18.40;5.07;;;;;;;19.36;78.37;101857.94;5382365;26;20004;-67
2024/04/11 09:45:18;;;;;;;24.17;5.63;;;;;;;19.33;80.29;101848.38;5382957;26;20093;-68
2024/04/11 09:47:48;;;;;;;15.95;4.50;;;;;;;19.56;77.19;101850.91;5382421;26;20011;-65
2024/04/11 09:50:17;;;;;;;18.02;4.60;;;;;;;19.72;74.93;101849.25;5351572;26;20033;-67
2024/04/11 09:52:46;;;;;;;16.02;4.55;;;;;;;19.67;75.40;101852.19;5382112;26;20011;-69
2024/04/11 09:55:17;;;;;;;21.17;4.95;;;;;;;19.53;76.90;101855.13;5382271;26;20366;-68
2024/04/11 09:57:46;;;;;;;20.20;4.57;;;;;;;19.50;78.56;101857.72;5381160;26;20054;-66
2024/04/11 10:00:48;;;;;;;17.45;4.53;;;;;;;19.59;76.93;101845.53;5381159;26;20371;-70
2024/04/11 10:03:19;;;;;;;22.08;4.75;;;;;;;19.65;75.51;101849.78;5352497;26;20015;-77
2024/04/11 10:05:50;;;;;;;14.65;3.75;;;;;;;19.75;74.33;101847.81;5353459;26;20024;-72
2024/04/11 10:08:27;;;;;;;20.23;4.78;;;;;;;19.72;74.68;101852.03;5381536;26;20085;-72
2024/04/11 10:10:58;;;;;;;18.23;5.20;;;;;;;19.73;73.79;101853.63;5382092;26;20075;-71
2024/04/11 10:13:26;;;;;;;15.73;4.63;;;;;;;19.95;72.23;101840.75;5350518;26;20000;-70
2024/04/11 10:16:21;;;;;;;16.98;3.95;;;;;;;19.86;73.14;101846.28;5381873;26;20337;-68
2024/04/11 10:19:07;;;;;;;20.60;5.10;;;;;;;20.05;74.12;101849.44;5381418;26;20000;-68
2024/04/11 10:21:38;;;;;;;20.70;4.38;;;;;;;20.34;70.58;101840.34;5350857;26;20000;-67
2024/04/11 10:24:26;;;;;;;15.70;3.83;;;;;;;20.47;69.79;101845.97;5381722;26;20007;-67
2024/04/11 10:27:03;;;;;;;18.50;4.32;;;;;;;20.23;70.92;101841.88;5381503;26;20024;-67
2024/04/11 10:29:33;;;;;;;18.90;4.45;;;;;;;19.94;72.69;101847.38;5381442;26;20028;-68
2024/04/11 10:32:02;;;;;;;22.60;4.65;;;;;;;19.87;73.56;101851.50;5370932;26;20015;-68
2024/04/11 10:34:35;;;;;;;15.35;4.45;;;;;;;19.82;72.92;101859.94;5360500;26;20017;-67
2024/04/11 10:37:14;;;;;;;16.33;3.75;;;;;;;19.55;75.82;101835.50;5383067;26;20441;-69
2024/04/11 10:39:42;;;;;;;15.13;4.00;;;;;;;19.59;77.16;101859.31;5354160;26;20023;-70
2024/04/11 10:42:13;;;;;;;17.15;4.03;;;;;;;19.45;76.89;101867.81;5358183;26;20390;-70
2024/04/11 10:44:46;;;;;;;18.35;4.20;;;;;;;19.37;76.59;101868.63;5379130;26;20018;-70
2024/04/11 10:47:17;;;;;;;22.20;4.38;;;;;;;19.28;77.25;101856.00;5381474;26;20073;-70
2024/04/11 10:49:45;;;;;;;19.40;3.90;;;;;;;19.23;75.87;101854.22;5379568;26;20356;-70
2024/04/11 10:52:13;;;;;;;19.92;3.97;;;;;;;19.51;76.54;101851.06;5381335;26;19997;-70
2024/04/11 10:54:42;;;;;;;18.05;4.22;;;;;;;19.68;74.42;101857.38;5381496;26;20518;-73
2024/04/11 10:57:13;;;;;;;16.60;3.50;;;;;;;19.60;75.03;101855.44;5349540;26;20019;-70
2024/04/11 10:59:53;;;;;;;25.17;3.78;;;;;;;19.66;77.20;101856.09;5381285;26;20071;-70
2024/04/11 11:02:23;;;;;;;15.50;4.07;;;;;;;19.78;75.70;101850.72;5381111;26;20073;-69
2024/04/11 11:04:54;;;;;;;19.60;4.78;;;;;;;19.91;75.56;101851.63;5381246;26;19997;-70
2024/04/11 11:07:31;;;;;;;14.30;3.58;;;;;;;19.63;74.60;101856.72;5381214;26;19997;-74
2024/04/11 11:09:59;;;;;;;14.25;4.05;;;;;;;19.52;75.38;101859.03;5351476;26;20070;-68
2024/04/11 11:12:27;;;;;;;14.10;3.63;;;;;;;19.66;75.32;101861.63;5384528;26;20110;-70
2024/04/11 11:14:55;;;;;;;12.18;3.92;;;;;;;19.74;74.50;101863.50;5384191;26;19996;-69
2024/04/11 11:17:27;;;;;;;13.18;3.70;;;;;;;19.71;74.94;101868.88;5384713;26;20036;-68
2024/04/11 11:19:55;;;;;;;21.30;4.18;;;;;;;19.52;72.81;101866.50;5376796;26;20388;-70
2024/04/11 11:22:37;;;;;;;18.90;4.05;;;;;;;19.50;73.82;101863.25;5360009;26;20042;-69
2024/04/11 11:25:08;;;;;;;17.55;3.85;;;;;;;19.40;72.91;101858.88;5384288;26;19996;-70
2024/04/11 11:27:38;;;;;;;13.50;4.07;;;;;;;19.62;71.52;101858.69;5384333;26;20000;-70
2024/04/11 11:30:15;;;;;;;12.80;3.78;;;;;;;19.71;68.81;101858.69;5382992;26;20403;-71
2024/04/11 11:32:44;;;;;;;18.17;3.80;;;;;;;19.72;68.59;101868.56;5384013;26;20467;-70
2024/04/11 11:35:12;;;;;;;15.10;4.20;;;;;;;19.88;69.71;101868.84;5384335;26;19996;-70